Time;durP1;ratioP1;P1;durP2;ratioP2;P2;SDS_P1;SDS_P2;PMS_P1;PMS_P2;Temp;Humidity;BMP_temperature;BMP_pressure;BME280_temperature;BME280_humidity;BME280_pressure;Samples;Min_cycle;Max_cycle;Signal;HPM_P1;HPM_P2
2023/05/12 00:00:13;;;;;;;;;;;;;;;20.95;100.00;98961.84;4990886;28;19927;-39
2023/05/12 00:02:39;;;;;;;;;;;;;;;22.17;100.00;98871.09;5010155;28;19931;-39
2023/05/12 00:05:04;;;;;;;;;;;;;;;21.79;100.00;98848.84;5011125;28;19921;-40
2023/05/12 00:07:29;;;;;;;;;;;;;;;20.24;100.00;98893.00;5014464;28;19932;-40
2023/05/12 00:09:55;;;;;;;;;;;;;;;22.65;100.00;98844.41;5013023;28;20860;-40
2023/05/12 00:12:20;;;;;;;;;;;;;;;22.80;100.00;98790.59;5010664;28;19921;-40
2023/05/12 00:14:45;;;;;;;;;;;;;;;22.44;100.00;98771.78;5008474;28;19931;-39
2023/05/12 00:17:12;;;;;;;;;;;;;;;22.36;100.00;98761.09;5012080;28;19940;-39
2023/05/12 00:19:40;;;;;;;;;;;;;;;22.17;100.00;98768.81;5010850;28;19929;-39
2023/05/12 00:22:05;;;;;;;;;;;;;;;23.03;100.00;98754.47;5012070;28;19924;-39
2023/05/12 00:24:31;;;;;;;;;;;;;;;21.31;100.00;98777.47;5010307;28;19924;-39
2023/05/12 00:26:56;;;;;;;;;;;;;;;21.13;100.00;98797.28;5011726;28;19986;-39
2023/05/12 00:29:21;;;;;;;;;;;;;;;22.65;100.00;98773.53;5012878;28;19963;-39
2023/05/12 00:31:46;;;;;;;;;;;;;;;22.49;100.00;98735.50;5012094;28;20051;-39
2023/05/12 00:34:11;;;;;;;;;;;;;;;23.05;100.00;98730.72;5011903;28;19921;-39
2023/05/12 00:36:37;;;;;;;;;;;;;;;22.71;100.00;98723.13;5011016;28;19928;-39
2023/05/12 00:39:02;;;;;;;;;;;;;;;22.46;100.00;98732.28;5012124;28;20017;-39
2023/05/12 00:41:27;;;;;;;;;;;;;;;21.87;100.00;98749.44;5011833;28;19974;-39
2023/05/12 00:43:53;;;;;;;;;;;;;;;23.15;100.00;98731.59;5009938;28;21670;-39
2023/05/12 00:46:18;;;;;;;;;;;;;;;22.11;100.00;98755.25;5010048;28;20137;-40
2023/05/12 00:48:43;;;;;;;;;;;;;;;22.57;100.00;98747.13;5013235;28;20013;-39
2023/05/12 00:51:09;;;;;;;;;;;;;;;20.95;100.00;98772.53;4991609;28;20000;-39
2023/05/12 00:53:34;;;;;;;;;;;;;;;21.94;100.00;98787.31;5010267;28;19956;-40
2023/05/12 00:56:00;;;;;;;;;;;;;;;22.30;100.00;98761.63;5010683;28;19928;-40
2023/05/12 00:58:25;;;;;;;;;;;;;;;22.17;100.00;98745.19;4992025;28;19916;-39
2023/05/12 01:00:50;;;;;;;;;;;;;;;21.85;100.00;98748.72;5009949;28;19931;-39
2023/05/12 01:03:16;;;;;;;;;;;;;;;20.88;100.00;98777.41;5010183;28;19917;-39
2023/05/12 01:05:59;;;;;;;;;;;;;;;20.96;100.00;98785.53;5010735;28;20354;-39
2023/05/12 01:08:25;;;;;;;;;;;;;;;21.63;100.00;98768.00;5006586;28;19936;-39
2023/05/12 01:10:51;;;;;;;;;;;;;;;22.17;100.00;98739.97;5011454;28;20224;-39
2023/05/12 01:13:16;;;;;;;;;;;;;;;22.67;100.00;98713.84;5010097;28;20059;-39
2023/05/12 01:15:44;;;;;;;;;;;;;;;22.11;100.00;98715.09;5008409;28;19931;-39
2023/05/12 01:18:10;;;;;;;;;;;;;;;22.44;100.00;98723.69;5006824;28;20300;-40
2023/05/12 01:20:35;;;;;;;;;;;;;;;22.12;100.00;98737.72;5008073;28;20294;-40
2023/05/12 01:23:00;;;;;;;;;;;;;;;22.54;100.00;98722.78;4991758;28;19924;-40
2023/05/12 01:25:26;;;;;;;;;;;;;;;22.02;100.00;98724.56;5009787;28;21128;-39
2023/05/12 01:27:51;;;;;;;;;;;;;;;20.47;100.00;98781.41;5006889;28;19947;-39
2023/05/12 01:30:17;;;;;;;;;;;;;;;21.52;100.00;98784.59;5008939;28;20396;-40
2023/05/12 01:32:42;;;;;;;;;;;;;;;21.85;100.00;98735.59;5010548;28;19921;-39
2023/05/12 01:35:08;;;;;;;;;;;;;;;21.85;100.00;98761.81;5009033;28;20511;-39
2023/05/12 01:37:33;;;;;;;;;;;;;;;21.42;100.00;98755.69;5005804;28;20058;-39
2023/05/12 01:39:58;;;;;;;;;;;;;;;22.17;100.00;98734.72;5010965;28;19921;-39
2023/05/12 01:42:23;;;;;;;;;;;;;;;21.21;100.00;98760.84;5008965;28;20308;-40
2023/05/12 01:44:48;;;;;;;;;;;;;;;21.30;100.00;98756.63;5010305;28;20888;-40
2023/05/12 01:47:14;;;;;;;;;;;;;;;20.29;100.00;98809.78;5009443;28;20801;-40
2023/05/12 01:49:39;;;;;;;;;;;;;;;20.31;100.00;98810.50;5010364;28;20606;-40
2023/05/12 01:52:05;;;;;;;;;;;;;;;19.81;100.00;98822.94;5008067;28;19921;-40
2023/05/12 01:54:30;;;;;;;;;;;;;;;19.46;100.00;98860.25;5008580;28;20396;-40
2023/05/12 01:56:55;;;;;;;;;;;;;;;18.91;100.00;98890.19;4991120;28;20460;-40
2023/05/12 01:59:20;;;;;;;;;;;;;;;19.85;100.00;98887.13;5010258;28;19921;-40
2023/05/12 02:01:46;;;;;;;;;;;;;;;19.60;100.00;98904.50;5006602;28;19932;-40
2023/05/12 02:04:11;;;;;;;;;;;;;;;20.14;100.00;98878.91;5008339;28;20223;-40
2023/05/12 02:06:36;;;;;;;;;;;;;;;19.49;100.00;98886.13;5008207;28;20012;-40
2023/05/12 02:09:01;;;;;;;;;;;;;;;19.58;100.00;98893.31;5009046;28;20598;-40
2023/05/12 02:11:27;;;;;;;;;;;;;;;19.55;100.00;98870.03;5007623;28;19967;-40
2023/05/12 02:13:52;;;;;;;;;;;;;;;19.11;100.00;98913.16;5007811;28;19932;-40
2023/05/12 02:16:17;;;;;;;;;;;;;;;20.21;100.00;98867.09;5008652;28;20063;-40
2023/05/12 02:18:42;;;;;;;;;;;;;;;18.47;100.00;98915.66;5010596;28;20645;-40
2023/05/12 02:21:08;;;;;;;;;;;;;;;18.83;100.00;98947.28;5008103;28;19929;-40
2023/05/12 02:23:33;;;;;;;;;;;;;;;19.60;100.00;98903.69;5008628;28;19959;-40
2023/05/12 02:25:58;;;;;;;;;;;;;;;18.84;100.00;98873.25;5008644;28;20011;-40
2023/05/12 02:28:23;;;;;;;;;;;;;;;18.08;100.00;98968.59;5008096;28;20047;-40
2023/05/12 02:30:49;;;;;;;;;;;;;;;18.32;100.00;98967.03;5009443;28;19961;-40
2023/05/12 02:33:15;;;;;;;;;;;;;;;20.14;100.00;98925.97;5008978;28;20024;-40
2023/05/12 02:35:40;;;;;;;;;;;;;;;19.51;100.00;98957.41;5009533;28;20018;-40
2023/05/12 02:38:05;;;;;;;;;;;;;;;19.60;100.00;98904.50;4986915;28;19959;-40
2023/05/12 02:40:30;;;;;;;;;;;;;;;19.26;100.00;98941.75;5008529;28;19942;-40
2023/05/12 02:42:56;;;;;;;;;;;;;;;19.31;100.00;98903.09;5009295;28;20042;-40
2023/05/12 02:45:21;;;;;;;;;;;;;;;20.46;100.00;98903.53;5009009;28;19967;-40
2023/05/12 02:47:47;;;;;;;;;;;;;;;20.22;100.00;98887.88;5007959;28;20765;-40
2023/05/12 02:50:12;;;;;;;;;;;;;;;21.00;100.00;98827.97;5009554;28;20282;-40
2023/05/12 02:52:37;;;;;;;;;;;;;;;20.19;100.00;98827.13;5006996;28;19932;-40
2023/05/12 02:55:03;;;;;;;;;;;;;;;20.75;100.00;98829.88;5008720;28;20067;-39
2023/05/12 02:57:32;;;;;;;;;;;;;;;18.75;100.00;98870.31;5008695;28;19925;-40
2023/05/12 02:59:58;;;;;;;;;;;;;;;19.19;100.00;98910.84;5008925;28;20031;-40
2023/05/12 03:02:23;;;;;;;;;;;;;;;18.99;100.00;98887.88;5007626;28;19924;-40
2023/05/12 03:04:48;;;;;;;;;;;;;;;19.67;100.00;98911.91;5010080;28;20378;-40
2023/05/12 03:07:13;;;;;;;;;;;;;;;21.28;100.00;98837.97;5012202;28;20513;-40
2023/05/12 03:09:38;;;;;;;;;;;;;;;20.43;100.00;98834.91;5008787;28;20031;-40
2023/05/12 03:12:04;;;;;;;;;;;;;;;19.78;100.00;98860.59;5012164;28;19924;-40
2023/05/12 03:14:29;;;;;;;;;;;;;;;19.78;100.00;98812.72;5011158;28;19998;-41
2023/05/12 03:16:54;;;;;;;;;;;;;;;19.88;100.00;98839.84;5012105;28;19921;-40
2023/05/12 03:19:20;;;;;;;;;;;;;;;19.89;100.00;98835.44;5012229;28;19964;-40
2023/05/12 03:21:45;;;;;;;;;;;;;;;20.01;100.00;98832.78;5012417;28;20009;-40
2023/05/12 03:24:10;;;;;;;;;;;;;;;20.99;100.00;98800.16;5010990;28;19917;-40
2023/05/12 03:26:35;;;;;;;;;;;;;;;20.95;100.00;98798.72;5012891;28;20321;-41
2023/05/12 03:29:01;;;;;;;;;;;;;;;20.61;100.00;98783.00;5011178;28;20892;-40
2023/05/12 03:31:26;;;;;;;;;;;;;;;19.84;100.00;98827.94;5010410;28;19925;-40
2023/05/12 03:33:51;;;;;;;;;;;;;;;19.71;100.00;98821.97;5011484;28;20417;-40
2023/05/12 03:36:17;;;;;;;;;;;;;;;20.63;100.00;98826.41;5012381;28;19925;-40
2023/05/12 03:38:42;;;;;;;;;;;;;;;18.84;100.00;98831.50;5010052;28;19974;-40
2023/05/12 03:41:07;;;;;;;;;;;;;;;20.12;100.00;98845.06;5012099;28;19956;-40
2023/05/12 03:43:32;;;;;;;;;;;;;;;19.83;100.00;98821.06;5010962;28;20000;-40
2023/05/12 03:45:57;;;;;;;;;;;;;;;20.04;100.00;98819.47;5010820;28;19925;-39
2023/05/12 03:48:23;;;;;;;;;;;;;;;20.28;100.00;98839.53;5011108;28;19916;-40
2023/05/12 03:50:48;;;;;;;;;;;;;;;20.66;100.00;98804.41;5007766;28;20408;-40
2023/05/12 03:53:13;;;;;;;;;;;;;;;20.81;100.00;98815.50;5011980;28;19929;-40
2023/05/12 03:55:39;;;;;;;;;;;;;;;21.52;100.00;98781.97;5009468;28;19921;-40
2023/05/12 03:58:05;;;;;;;;;;;;;;;20.97;100.00;98786.34;5011671;28;19994;-40
2023/05/12 04:00:30;;;;;;;;;;;;;;;20.91;100.00;98790.25;5011342;28;19925;-40
2023/05/12 04:02:55;;;;;;;;;;;;;;;19.89;100.00;98823.22;5010147;28;19947;-40
2023/05/12 04:05:20;;;;;;;;;;;;;;;19.95;100.00;98830.59;5010167;28;19917;-40
2023/05/12 04:07:46;;;;;;;;;;;;;;;19.63;100.00;98845.97;5012595;28;19933;-40
2023/05/12 04:10:11;;;;;;;;;;;;;;;20.68;100.00;98828.69;5012038;28;20592;-40
2023/05/12 04:12:36;;;;;;;;;;;;;;;20.99;100.00;98805.38;5013040;28;20491;-40
2023/05/12 04:15:01;;;;;;;;;;;;;;;21.38;100.00;98769.13;5010977;28;19917;-40
2023/05/12 04:17:27;;;;;;;;;;;;;;;20.76;100.00;98813.25;5009990;28;19925;-40
2023/05/12 04:19:52;;;;;;;;;;;;;;;21.10;100.00;98785.25;5009081;28;20066;-40
2023/05/12 04:22:17;;;;;;;;;;;;;;;20.86;100.00;98795.03;5012483;28;20070;-40
2023/05/12 04:24:42;;;;;;;;;;;;;;;21.30;100.00;98778.44;5011673;28;19917;-40
2023/05/12 04:27:08;;;;;;;;;;;;;;;20.15;100.00;98812.63;5012159;28;19921;-40
2023/05/12 04:29:33;;;;;;;;;;;;;;;21.04;100.00;98788.34;5006520;28;19932;-39
2023/05/12 04:31:59;;;;;;;;;;;;;;;19.22;100.00;98844.53;5010496;28;20296;-40
2023/05/12 04:34:24;;;;;;;;;;;;;;;19.72;100.00;98865.41;5010696;28;19927;-40
2023/05/12 04:36:49;;;;;;;;;;;;;;;18.01;100.00;98883.94;4989430;28;20479;-40
2023/05/12 04:39:14;;;;;;;;;;;;;;;19.35;100.00;98899.34;5007823;28;20293;-40
2023/05/12 04:41:40;;;;;;;;;;;;;;;20.06;100.00;98871.66;5012152;28;19943;-39
2023/05/12 04:44:05;;;;;;;;;;;;;;;20.28;100.00;98860.44;5008808;28;19921;-38
2023/05/12 04:46:30;;;;;;;;;;;;;;;19.13;100.00;98872.09;5013784;28;20054;-38
2023/05/12 04:48:55;;;;;;;;;;;;;;;19.21;100.00;98908.97;5012134;28;21147;-39
2023/05/12 04:51:21;;;;;;;;;;;;;;;19.65;100.00;98901.56;5009351;28;19970;-39
2023/05/12 04:53:46;;;;;;;;;;;;;;;19.50;100.00;98900.03;5007257;28;19950;-39
2023/05/12 04:56:11;;;;;;;;;;;;;;;18.55;100.00;98938.63;5009111;28;20047;-39
2023/05/12 04:58:37;;;;;;;;;;;;;;;18.34;100.00;98931.28;5010098;28;19996;-39
2023/05/12 05:01:02;;;;;;;;;;;;;;;19.49;100.00;98920.09;5007668;28;19921;-39
2023/05/12 05:03:27;;;;;;;;;;;;;;;19.25;100.00;98924.41;5011071;28;19947;-39
2023/05/12 05:05:53;;;;;;;;;;;;;;;19.71;100.00;98895.13;5007579;28;21656;-39
2023/05/12 05:08:18;;;;;;;;;;;;;;;19.18;100.00;98890.06;5009220;28;20913;-39
2023/05/12 05:10:43;;;;;;;;;;;;;;;18.31;100.00;98923.66;5007418;28;20476;-39
2023/05/12 05:13:08;;;;;;;;;;;;;;;19.23;100.00;98943.63;5010550;28;19929;-38
2023/05/12 05:15:33;;;;;;;;;;;;;;;19.41;100.00;98945.94;4989501;28;19948;-39
2023/05/12 05:17:59;;;;;;;;;;;;;;;19.18;100.00;98940.50;5007940;28;19991;-39
2023/05/12 05:20:24;;;;;;;;;;;;;;;19.85;100.00;98940.22;5010990;28;20043;-39
2023/05/12 05:22:50;;;;;;;;;;;;;;;19.72;100.00;98954.25;5010253;28;19923;-39
2023/05/12 05:25:15;;;;;;;;;;;;;;;18.50;100.00;98982.44;5009901;28;20377;-38
2023/05/12 05:27:40;;;;;;;;;;;;;;;18.29;100.00;98982.91;5009107;28;19921;-38
2023/05/12 05:30:06;;;;;;;;;;;;;;;18.00;100.00;98986.50;5012756;28;19952;-39
2023/05/12 05:32:33;;;;;;;;;;;;;;;18.22;100.00;98999.84;5021370;28;19921;-38
2023/05/12 05:34:58;;;;;;;;;;;;;;;19.09;100.00;99013.38;5025399;28;20445;-39
2023/05/12 05:37:23;;;;;;;;;;;;;;;19.64;100.00;98984.34;5029890;28;20011;-39
2023/05/12 05:39:49;;;;;;;;;;;;;;;19.80;100.00;98975.47;5017934;28;19917;-39
2023/05/12 05:42:15;;;;;;;;;;;;;;;17.76;100.00;99016.53;5020419;28;20404;-39
2023/05/12 05:44:40;;;;;;;;;;;;;;;20.01;100.00;98986.16;5018933;28;19917;-39
2023/05/12 05:47:06;;;;;;;;;;;;;;;19.37;100.00;98983.63;5020355;28;19923;-39
2023/05/12 05:49:31;;;;;;;;;;;;;;;19.62;100.00;99007.13;5020044;28;19916;-41
2023/05/12 05:51:56;;;;;;;;;;;;;;;20.12;100.00;98977.56;5020366;28;20361;-41
2023/05/12 05:54:24;;;;;;;;;;;;;;;20.34;100.00;98942.84;5019876;28;20416;-40
2023/05/12 05:56:50;;;;;;;;;;;;;;;20.50;100.00;98919.81;5020372;28;19917;-40
2023/05/12 05:59:16;;;;;;;;;;;;;;;21.40;100.00;98904.31;5020397;28;19920;-38
2023/05/12 06:01:41;;;;;;;;;;;;;;;20.54;100.00;98916.03;5018361;28;19917;-41
2023/05/12 06:04:06;;;;;;;;;;;;;;;20.46;100.00;98923.63;5020939;28;19913;-41
2023/05/12 06:06:31;;;;;;;;;;;;;;;21.00;100.00;98919.63;5019724;28;19917;-41
2023/05/12 06:08:56;;;;;;;;;;;;;;;19.59;100.00;98970.78;5020147;28;19924;-41
2023/05/12 06:11:22;;;;;;;;;;;;;;;20.30;100.00;98955.31;5016932;28;19921;-41
2023/05/12 06:13:47;;;;;;;;;;;;;;;19.45;100.00;98989.16;5002066;28;20345;-40
2023/05/12 06:16:12;;;;;;;;;;;;;;;19.95;100.00;98997.06;5019769;28;19916;-40
2023/05/12 06:18:37;;;;;;;;;;;;;;;20.30;100.00;98986.69;5019899;28;19921;-40
2023/05/12 06:21:03;;;;;;;;;;;;;;;20.87;100.00;98957.22;5020419;28;19921;-40
2023/05/12 06:23:28;;;;;;;;;;;;;;;19.39;100.00;98984.38;5019776;28;19975;-40
2023/05/12 06:25:54;;;;;;;;;;;;;;;21.08;100.00;98959.16;5020210;28;19960;-40
2023/05/12 06:28:19;;;;;;;;;;;;;;;19.42;100.00;98982.38;5019827;28;20526;-41
2023/05/12 06:30:44;;;;;;;;;;;;;;;20.15;100.00;98993.03;5020943;28;20000;-40
2023/05/12 06:33:09;;;;;;;;;;;;;;;20.25;100.00;99013.19;5020059;28;19921;-40
2023/05/12 06:35:35;;;;;;;;;;;;;;;20.33;100.00;99002.16;5029361;28;19913;-40
2023/05/12 06:38:00;;;;;;;;;;;;;;;21.23;100.00;98955.38;5020687;28;20622;-40
2023/05/12 06:40:25;;;;;;;;;;;;;;;19.88;100.00;99001.06;5023080;28;19958;-40
2023/05/12 06:42:50;;;;;;;;;;;;;;;20.69;100.00;98987.38;5023773;28;19917;-41
2023/05/12 06:45:16;;;;;;;;;;;;;;;19.38;100.00;99014.03;5023740;28;19917;-40
2023/05/12 06:47:41;;;;;;;;;;;;;;;19.98;100.00;99015.13;5022057;28;19940;-40
2023/05/12 06:50:07;;;;;;;;;;;;;;;19.56;100.00;99033.66;5023417;28;19917;-41
2023/05/12 06:52:32;;;;;;;;;;;;;;;19.48;100.00;99040.34;5023046;28;20006;-40
2023/05/12 06:54:57;;;;;;;;;;;;;;;20.59;100.00;99000.28;5023584;28;19983;-40
2023/05/12 06:57:23;;;;;;;;;;;;;;;20.98;100.00;98976.50;5023108;28;19932;-41
2023/05/12 06:59:48;;;;;;;;;;;;;;;20.34;100.00;98961.16;5024079;28;19917;-40
2023/05/12 07:02:13;;;;;;;;;;;;;;;19.07;100.00;99013.50;5021359;28;19928;-40
2023/05/12 07:04:38;;;;;;;;;;;;;;;19.69;100.00;99027.63;5023051;28;19927;-40
2023/05/12 07:07:03;;;;;;;;;;;;;;;20.89;100.00;98989.34;5022798;28;19917;-40
2023/05/12 07:09:29;;;;;;;;;;;;;;;21.93;100.00;98942.94;5022207;28;20096;-41
2023/05/12 07:11:54;;;;;;;;;;;;;;;20.96;100.00;98967.91;5023120;28;20007;-40
2023/05/12 07:14:19;;;;;;;;;;;;;;;19.92;100.00;98985.03;5023256;28;19924;-41
2023/05/12 07:16:45;;;;;;;;;;;;;;;20.20;100.00;98981.28;5023269;28;19928;-41
2023/05/12 07:19:10;;;;;;;;;;;;;;;19.08;100.00;99024.75;5022635;28;19917;-41
2023/05/12 07:21:36;;;;;;;;;;;;;;;19.81;100.00;99026.78;5022639;28;19921;-41
2023/05/12 07:24:01;;;;;;;;;;;;;;;20.64;100.00;98995.56;5023339;28;19981;-40
2023/05/12 07:26:28;;;;;;;;;;;;;;;20.24;100.00;99029.81;5025216;28;20422;-41
2023/05/12 07:28:53;;;;;;;;;;;;;;;21.07;100.00;99012.47;5023329;28;19979;-41
2023/05/12 07:31:18;;;;;;;;;;;;;;;21.70;100.00;98968.38;5022947;28;19913;-41
2023/05/12 07:33:44;;;;;;;;;;;;;;;20.62;100.00;98991.41;5022086;28;20392;-41
2023/05/12 07:36:09;;;;;;;;;;;;;;;20.42;100.00;99011.97;5022464;28;19917;-41
2023/05/12 07:38:34;;;;;;;;;;;;;;;20.66;100.00;99037.31;5022286;28;19949;-41
2023/05/12 07:41:00;;;;;;;;;;;;;;;20.78;100.00;98997.16;5023207;28;19917;-41
2023/05/12 07:43:25;;;;;;;;;;;;;;;20.34;100.00;99027.34;5022649;28;20044;-41
2023/05/12 07:45:50;;;;;;;;;;;;;;;20.22;100.00;99036.09;5022664;28;20870;-41
2023/05/12 07:48:15;;;;;;;;;;;;;;;19.95;100.00;99029.25;5020916;28;20008;-41
2023/05/12 07:50:41;;;;;;;;;;;;;;;21.95;100.00;98990.88;5021132;28;19948;-41
2023/05/12 07:53:06;;;;;;;;;;;;;;;21.19;100.00;98984.50;5022402;28;20071;-41
2023/05/12 07:55:34;;;;;;;;;;;;;;;22.16;100.00;98969.94;5021802;28;20222;-41
2023/05/12 07:58:00;;;;;;;;;;;;;;;21.14;100.00;98982.22;5022464;28;19948;-41
2023/05/12 08:00:25;;;;;;;;;;;;;;;22.45;100.00;98964.19;5022405;28;19955;-41
2023/05/12 08:02:50;;;;;;;;;;;;;;;21.55;100.00;98945.97;5021304;28;19927;-41
2023/05/12 08:05:16;;;;;;;;;;;;;;;21.18;100.00;98978.44;5026122;28;19971;-41
2023/05/12 08:07:42;;;;;;;;;;;;;;;23.00;100.00;98959.63;5022031;28;20543;-41
2023/05/12 08:10:08;;;;;;;;;;;;;;;21.97;100.00;98978.47;5020871;28;19917;-41
2023/05/12 08:12:33;;;;;;;;;;;;;;;23.44;100.00;98946.28;5021812;28;19971;-42
2023/05/12 08:14:58;;;;;;;;;;;;;;;21.78;100.00;98955.50;5022048;28;20450;-42
2023/05/12 08:17:24;;;;;;;;;;;;;;;21.19;100.00;99003.69;5021997;28;19917;-42
2023/05/12 08:19:49;;;;;;;;;;;;;;;21.60;100.00;98997.09;5027344;28;19917;-41
2023/05/12 08:22:14;;;;;;;;;;;;;;;22.28;100.00;98969.00;5021670;28;19924;-42
2023/05/12 08:24:40;;;;;;;;;;;;;;;22.16;100.00;98971.75;5023843;28;20000;-42
2023/05/12 08:27:05;;;;;;;;;;;;;;;23.27;100.00;98960.88;5022590;28;19917;-42
2023/05/12 08:29:30;;;;;;;;;;;;;;;23.16;100.00;98946.84;5021914;28;19917;-42
2023/05/12 08:31:56;;;;;;;;;;;;;;;22.22;100.00;98947.69;5021563;28;19923;-42
2023/05/12 08:34:21;;;;;;;;;;;;;;;22.37;100.00;98961.34;5021343;28;19912;-43
2023/05/12 08:36:46;;;;;;;;;;;;;;;23.87;100.00;98939.94;5018967;28;20020;-42
2023/05/12 08:39:11;;;;;;;;;;;;;;;24.07;100.00;98915.34;5022258;28;19917;-42
2023/05/12 08:41:46;;;;;;;;;;;;;;;24.45;100.00;98945.28;5020141;28;19916;-42
2023/05/12 08:44:11;;;;;;;;;;;;;;;24.55;100.00;98927.69;5020653;28;19917;-42
2023/05/12 08:46:37;;;;;;;;;;;;;;;24.03;100.00;98937.63;5022138;28;20398;-42
2023/05/12 08:49:02;;;;;;;;;;;;;;;22.90;100.00;98954.28;5021445;28;19928;-42
2023/05/12 08:51:28;;;;;;;;;;;;;;;23.43;100.00;98963.03;5021109;28;19921;-42
2023/05/12 08:53:54;;;;;;;;;;;;;;;23.90;100.00;98944.94;5021291;28;20000;-42
2023/05/12 08:56:20;;;;;;;;;;;;;;;23.90;100.00;98931.78;5021259;28;19956;-42
2023/05/12 08:58:46;;;;;;;;;;;;;;;22.96;100.00;98947.66;5020246;28;20323;-42
2023/05/12 09:01:11;;;;;;;;;;;;;;;24.17;100.00;98939.84;5020421;28;19917;-42
2023/05/12 09:03:36;;;;;;;;;;;;;;;26.26;100.00;98893.94;5024057;28;19924;-42
2023/05/12 09:06:02;;;;;;;;;;;;;;;25.65;100.00;98905.16;5021156;28;19952;-42
2023/05/12 09:08:29;;;;;;;;;;;;;;;24.60;100.00;98909.66;5021568;28;20361;-42
2023/05/12 09:10:55;;;;;;;;;;;;;;;24.67;100.00;98898.56;5002139;28;19917;-42
2023/05/12 09:13:32;;;;;;;;;;;;;;;24.84;100.00;98877.59;5020962;28;19931;-42
2023/05/12 09:15:58;;;;;;;;;;;;;;;23.07;100.00;98902.16;5021516;28;19972;-41
2023/05/12 09:18:23;;;;;;;;;;;;;;;23.79;100.00;98904.63;5021231;28;20610;-42
2023/05/12 09:20:49;;;;;;;;;;;;;;;25.19;100.00;98893.75;5021304;28;20647;-42
2023/05/12 09:23:14;;;;;;;;;;;;;;;23.24;100.00;98925.19;5032078;28;19939;-42
2023/05/12 09:25:39;;;;;;;;;;;;;;;24.97;100.00;98868.53;5020412;28;19921;-42
2023/05/12 09:28:04;;;;;;;;;;;;;;;26.31;100.00;98863.63;5020903;28;19917;-42
2023/05/12 09:30:30;;;;;;;;;;;;;;;28.01;97.19;98829.38;5021713;28;19920;-42
2023/05/12 09:33:08;;;;;;;;;;;;;;;24.90;100.00;98888.53;5020316;28;20031;-42
2023/05/12 09:35:40;;;;;;;;;;;;;;;24.78;100.00;98912.41;5020604;28;19916;-42
2023/05/12 09:38:08;;;;;;;;;;;;;;;25.47;100.00;98894.56;5019264;28;20267;-42
2023/05/12 09:40:34;;;;;;;;;;;;;;;25.66;100.00;98883.09;5019627;28;19960;-42
2023/05/12 09:42:59;;;;;;;;;;;;;;;25.72;97.76;98856.13;5025570;28;19956;-42
2023/05/12 09:45:24;;;;;;;;;;;;;;;25.71;100.00;98882.66;5019730;28;19912;-42
2023/05/12 09:47:49;;;;;;;;;;;;;;;26.35;100.00;98875.53;5022747;28;19928;-42
2023/05/12 09:50:15;;;;;;;;;;;;;;;26.94;94.83;98850.19;5020681;28;19917;-42
2023/05/12 09:52:40;;;;;;;;;;;;;;;25.62;100.00;98910.75;5019760;28;20056;-42
2023/05/12 09:55:12;;;;;;;;;;;;;;;24.73;99.56;98877.78;5019795;28;20405;-42
2023/05/12 09:57:39;;;;;;;;;;;;;;;24.85;100.00;98886.34;5020674;28;19996;-42
2023/05/12 10:00:06;;;;;;;;;;;;;;;26.04;98.51;98868.00;5021306;28;20404;-42
2023/05/12 10:02:31;;;;;;;;;;;;;;;25.84;99.08;98888.38;5017814;28;19921;-42
2023/05/12 10:04:57;;;;;;;;;;;;;;;24.68;100.00;98910.75;5020639;28;19923;-42
2023/05/12 10:07:23;;;;;;;;;;;;;;;24.62;100.00;98907.72;5018238;28;19956;-42
2023/05/12 10:09:48;;;;;;;;;;;;;;;26.08;98.92;98869.38;5026293;28;20959;-42
2023/05/12 10:12:13;;;;;;;;;;;;;;;26.18;99.26;98885.94;5019943;28;19928;-42
2023/05/12 10:14:38;;;;;;;;;;;;;;;25.54;100.00;98913.28;5019069;28;19917;-42
2023/05/12 10:17:04;;;;;;;;;;;;;;;25.81;100.00;98892.16;5025188;28;19983;-42
2023/05/12 10:19:29;;;;;;;;;;;;;;;25.14;100.00;98901.22;5025320;28;20003;-42
2023/05/12 10:21:55;;;;;;;;;;;;;;;24.61;100.00;98916.63;5022280;28;19937;-42
2023/05/12 10:24:20;;;;;;;;;;;;;;;26.53;100.00;98880.78;5023045;28;19921;-42
2023/05/12 10:26:46;;;;;;;;;;;;;;;26.91;98.00;98888.34;5020793;28;19931;-42
2023/05/12 10:29:11;;;;;;;;;;;;;;;24.93;99.78;98894.38;5026934;28;20447;-43
2023/05/12 10:31:37;;;;;;;;;;;;;;;25.17;99.96;98895.66;5024565;28;19921;-43
2023/05/12 10:34:02;;;;;;;;;;;;;;;25.82;98.53;98891.19;5024164;28;19948;-42
2023/05/12 10:36:27;;;;;;;;;;;;;;;26.77;100.00;98890.72;5029369;28;19921;-43
2023/05/12 10:38:53;;;;;;;;;;;;;;;24.48;100.00;98908.16;5023916;28;20415;-42
2023/05/12 10:41:31;;;;;;;;;;;;;;;26.98;94.94;98861.25;5023504;28;19935;-42
2023/05/12 10:43:57;;;;;;;;;;;;;;;25.55;97.91;98896.50;5023973;28;19917;-42
2023/05/12 10:46:23;;;;;;;;;;;;;;;25.44;99.47;98893.06;5023125;28;19921;-42
2023/05/12 10:48:50;;;;;;;;;;;;;;;23.96;99.52;98911.03;5023585;28;20476;-42
2023/05/12 10:51:17;;;;;;;;;;;;;;;24.21;98.75;98898.31;5023418;28;20358;-42
2023/05/12 10:53:43;;;;;;;;;;;;;;;24.33;100.00;98904.25;5023375;28;19929;-42
2023/05/12 10:56:08;;;;;;;;;;;;;;;25.07;99.86;98893.06;5023206;28;20293;-42
2023/05/12 10:58:34;;;;;;;;;;;;;;;25.15;100.00;98900.25;5024228;28;20286;-42
2023/05/12 11:01:04;;;;;;;;;;;;;;;26.04;100.00;98902.31;5023213;28;20301;-42
2023/05/12 11:03:29;;;;;;;;;;;;;;;25.30;100.00;98906.75;5022840;28;20019;-42
2023/05/12 11:06:02;;;;;;;;;;;;;;;26.45;97.32;98870.97;5023415;28;19925;-43
2023/05/12 11:08:27;;;;;;;;;;;;;;;25.25;93.98;98866.81;5030148;28;19917;-43
2023/05/12 11:10:52;;;;;;;;;;;;;;;25.20;98.27;98885.72;5027968;28;19979;-42
2023/05/12 11:13:18;;;;;;;;;;;;;;;25.37;99.97;98886.72;5022314;28;20688;-42
2023/05/12 11:15:43;;;;;;;;;;;;;;;25.23;98.34;98884.59;5024151;28;19917;-42
2023/05/12 11:18:11;;;;;;;;;;;;;;;25.77;100.00;98882.06;5028656;28;19917;-42
2023/05/12 11:20:36;;;;;;;;;;;;;;;26.14;96.26;98860.00;5027610;28;19943;-42
2023/05/12 11:23:02;;;;;;;;;;;;;;;25.59;94.88;98859.13;5025195;28;19921;-42
2023/05/12 11:25:27;;;;;;;;;;;;;;;27.68;88.26;98818.72;5022072;28;19921;-42
2023/05/12 11:27:53;;;;;;;;;;;;;;;27.60;91.39;98835.41;5023221;28;20254;-42
2023/05/12 11:30:18;;;;;;;;;;;;;;;26.38;92.65;98865.47;5023155;28;20990;-42
2023/05/12 11:32:43;;;;;;;;;;;;;;;26.63;91.21;98866.50;5023628;28;20867;-42
2023/05/12 11:35:13;;;;;;;;;;;;;;;28.38;88.02;98822.75;5027090;28;20015;-42
2023/05/12 11:37:39;;;;;;;;;;;;;;;27.02;88.31;98850.22;5026246;28;19920;-42
2023/05/12 11:40:14;;;;;;;;;;;;;;;27.19;90.40;98858.25;5022422;28;19971;-42
2023/05/12 11:42:41;;;;;;;;;;;;;;;28.96;86.10;98803.88;5021459;28;19925;-42
2023/05/12 11:45:07;;;;;;;;;;;;;;;26.69;89.39;98844.78;5021594;28;20299;-42
2023/05/12 11:47:32;;;;;;;;;;;;;;;26.90;91.54;98864.69;5006229;28;19921;-42
2023/05/12 11:49:57;;;;;;;;;;;;;;;27.99;84.95;98824.25;5024417;28;19925;-42
2023/05/12 11:52:23;;;;;;;;;;;;;;;27.30;86.81;98839.44;5029218;28;20010;-42
2023/05/12 11:54:52;;;;;;;;;;;;;;;28.69;83.50;98810.47;5017661;28;19960;-42
2023/05/12 11:57:26;;;;;;;;;;;;;;;29.27;81.03;98811.09;5025554;28;19916;-42
2023/05/12 11:59:59;;;;;;;;;;;;;;;28.39;83.96;98830.50;5026085;28;19917;-42
2023/05/12 12:02:24;;;;;;;;;;;;;;;28.51;83.05;98833.66;5017891;28;19929;-42
2023/05/12 12:04:49;;;;;;;;;;;;;;;28.25;84.61;98829.38;5032255;28;19927;-42
2023/05/12 12:07:15;;;;;;;;;;;;;;;27.16;83.34;98842.69;5018211;28;19936;-42
2023/05/12 12:09:40;;;;;;;;;;;;;;;26.74;84.67;98849.59;5021152;28;19917;-42
2023/05/12 12:12:06;;;;;;;;;;;;;;;26.62;89.13;98875.44;5020837;28;20608;-42
2023/05/12 12:14:32;;;;;;;;;;;;;;;27.51;88.91;98863.66;5020414;28;19913;-42
2023/05/12 12:16:58;;;;;;;;;;;;;;;26.66;88.11;98862.72;5023700;28;20457;-42
2023/05/12 12:19:23;;;;;;;;;;;;;;;26.72;85.21;98854.19;5025309;28;19920;-42
2023/05/12 12:21:48;;;;;;;;;;;;;;;27.71;83.33;98831.63;5022215;28;19971;-42
2023/05/12 12:24:14;;;;;;;;;;;;;;;27.39;80.96;98822.63;5021820;28;19979;-42
2023/05/12 12:26:39;;;;;;;;;;;;;;;29.04;80.09;98807.53;5022266;28;19913;-42
2023/05/12 12:29:04;;;;;;;;;;;;;;;27.30;81.02;98836.81;5021799;28;19917;-42